Latest Weather Observations for Essendon Airport

IDV60901

Issued at 1:05 pm EST Monday 21 April 2014 (issued every 10 minutes, with the page automatically refreshed every 10 minutes)

About weather observations | Map of Melbourne area stations | Latest observations for Melbourne area | Other Formats
Station Details ID: 086038 Name: ESSENDON AIRPORT Lat: -37.73 Lon: 144.91 Height: 78.4 m
Data from the previous 72 hours. | See also: Recent months at Essendon Airport
Date/Time
EST
Tmp

°C
App
Tmp
°C
Dew
Point
°C
Rel
Hum
%
Delta-T

°C
Wind Press
QNH
hPa
Press
MSL
hPa
Rain
since
9 am
mm
Dir
 
Spd
km/h
Gust
km/h
Spd
kts
Gust
kts
21/01:02pm 17.6 9.5 7.1 50 5.3 N 39 57 21 31 1015.9 - 0.0
21/01:00pm 17.6 9.8 6.8 49 5.4 N 37 54 20 29 1016.0 - 0.0
21/12:33pm 17.9 10.9 7.0 49 5.5 N 33 54 18 29 1016.5 - 0.0
21/12:30pm 18.1 11.4 7.2 49 5.5 N 32 44 17 24 1016.7 - 0.0
21/12:00pm 16.7 9.9 6.8 52 4.9 NNE 32 44 17 24 1017.1 1017.0 0.0
21/11:32am 16.9 9.8 6.4 50 5.2 N 33 52 18 28 1017.6 - 0.0
21/11:30am 16.9 9.4 6.4 50 5.2 N 35 52 19 28 1017.6 - 0.0
21/11:16am 16.6 8.6 5.9 49 5.2 N 37 56 20 30 1017.8 - 0.0
21/11:00am 16.4 8.9 6.2 51 5.0 N 35 52 19 28 1018.1 - 0.0
21/10:30am 15.8 7.5 6.0 52 4.7 N 39 54 21 29 1018.6 - 0.0
21/10:12am 15.7 8.1 5.9 52 4.7 N 35 54 19 29 1018.8 - 0.0
21/10:00am 15.4 7.8 5.6 52 4.7 N 35 50 19 27 1018.8 - 0.0
21/09:30am 14.8 7.5 5.6 54 4.4 N 33 50 18 27 1019.0 - 0.0
21/09:23am 14.8 7.7 5.6 54 4.4 N 32 50 17 27 1019.0 - 0.0
21/09:00am 14.4 7.7 5.7 56 4.1 N 30 44 16 24 1018.9 1018.8 0.0
21/08:30am 13.6 7.4 6.0 60 3.6 N 28 41 15 22 1019.1 - 0.0
21/08:00am 12.8 6.8 5.5 61 3.4 N 26 39 14 21 1018.7 - 0.0
21/07:30am 12.4 6.8 5.3 62 3.3 N 24 33 13 18 1018.7 - 0.0
21/07:00am 11.8 6.3 5.7 66 2.8 N 24 33 13 18 1018.4 - 0.0
21/06:30am 11.7 5.0 5.6 66 2.8 N 30 41 16 22 1018.2 - 0.0
21/06:00am 12.0 6.1 5.6 65 3.0 N 26 41 14 22 1018.1 1018.0 0.0
21/05:30am 12.0 6.1 5.6 65 3.0 N 26 37 14 20 1017.9 - 0.0
21/05:00am 12.1 5.8 5.7 65 3.0 N 28 44 15 24 1017.8 - 0.0
21/04:30am 11.6 5.7 5.7 67 2.8 N 26 39 14 21 1017.6 - 0.0
21/04:00am 11.8 5.5 5.9 67 2.8 N 28 39 15 21 1017.4 - 0.0
21/03:30am 12.0 5.4 5.9 66 2.9 N 30 39 16 21 1017.4 - 0.0
21/03:00am 12.1 5.0 5.7 65 3.0 N 32 46 17 25 1017.3 1017.2 0.0
21/02:30am 12.2 5.9 5.8 65 3.0 N 28 41 15 22 1017.4 - 0.0
21/02:00am 12.4 6.1 5.8 64 3.1 N 28 39 15 21 1017.5 - 0.0
21/01:30am 12.9 6.2 5.6 61 3.4 N 30 43 16 23 1017.6 - 0.0
21/01:00am 13.1 7.2 5.8 61 3.5 N 26 39 14 21 1017.8 - 0.0
21/12:30am 13.6 7.6 5.5 58 3.8 N 26 35 14 19 1017.8 - 0.0
21/12:00am 13.7 7.0 5.8 59 3.7 N 30 41 16 22 1017.7 1017.6 0.0
 
Date/Time
EST
Tmp

°C
App
Tmp
°C
Dew
Point
°C
Rel
Hum
%
Delta-T

°C
Wind Press
QNH
hPa
Press
MSL
hPa
Rain
since
9 am
mm
Dir
 
Spd
km/h
Gust
km/h
Spd
kts
Gust
kts
20/11:30pm 13.4 7.5 5.8 60 3.6 N 26 33 14 18 1017.9 - 0.0
20/11:00pm 13.4 7.9 5.8 60 3.6 N 24 33 13 18 1018.0 - 0.0
20/10:30pm 13.2 8.5 6.1 62 3.4 N 20 28 11 15 1018.2 - 0.0
20/10:00pm 13.4 8.7 6.0 61 3.5 N 20 28 11 15 1018.3 - 0.0
20/09:30pm 13.9 9.4 6.3 60 3.7 N 19 24 10 13 1018.1 - 0.0
20/09:00pm 14.0 9.9 6.4 60 3.7 N 17 20 9 11 1018.1 1018.0 0.0
20/08:30pm 14.5 10.9 6.6 59 3.8 N 15 20 8 11 1018.0 - 0.0
20/08:00pm 14.8 10.8 6.6 58 4.0 N 17 26 9 14 1017.9 - 0.0
20/07:30pm 14.8 11.2 6.9 59 3.9 N 15 20 8 11 1017.8 - 0.0
20/07:00pm 14.9 11.3 6.7 58 4.0 N 15 20 8 11 1017.6 - 0.0
20/06:30pm 14.2 11.8 6.8 61 3.6 N 9 13 5 7 1017.4 - 0.0
20/06:00pm 15.4 12.4 6.1 54 4.5 NNW 11 13 6 7 1017.0 1016.9 0.0
20/05:30pm 16.7 12.9 5.9 49 5.3 NW 15 19 8 10 1016.7 - 0.0
20/05:00pm 17.8 14.0 5.7 45 5.9 NW 15 19 8 10 1016.5 - 0.0
20/04:30pm 17.5 14.5 5.8 46 5.7 NNW 11 22 6 12 1016.4 - 0.0
20/04:00pm 17.8 14.4 5.7 45 5.9 NW 13 19 7 10 1016.3 - 0.0
20/03:30pm 17.7 13.9 5.6 45 5.9 WNW 15 22 8 12 1016.4 - 0.0
20/03:00pm 17.6 12.5 5.9 46 5.7 W 22 28 12 15 1016.5 1016.4 0.0
20/02:30pm 17.7 13.9 5.6 45 5.9 WNW 15 24 8 13 1016.2 - 0.0
20/02:00pm 17.4 12.9 4.4 42 6.2 WNW 17 24 9 13 1016.1 - 0.0
20/01:30pm 18.1 14.2 5.3 43 6.2 NW 15 20 8 11 1016.3 - 0.0
20/01:00pm 17.0 12.4 5.6 47 5.5 WNW 19 28 10 15 1016.6 - 0.0
20/12:30pm 16.8 12.0 4.8 45 5.7 W 19 28 10 15 1017.0 - 0.0
20/12:00pm 17.2 13.4 5.8 47 5.5 NW 15 33 8 18 1017.2 1017.1 0.0
20/11:30am 16.6 11.3 4.9 46 5.6 NW 22 30 12 16 1017.6 - 0.0
20/11:00am 16.8 11.3 5.7 48 5.4 NW 24 32 13 17 1017.8 - 0.0
20/10:30am 16.4 11.9 6.2 51 5.0 NW 19 26 10 14 1018.0 - 0.0
20/10:00am 15.3 11.2 6.1 54 4.5 NW 17 24 9 13 1018.2 - 0.0
20/09:30am 14.4 11.1 6.5 59 3.8 NNW 13 17 7 9 1018.3 - 0.0
20/09:00am 13.4 9.7 6.5 63 3.3 NNW 15 20 8 11 1018.3 1018.2 0.0
20/08:30am 12.9 9.2 6.3 64 3.1 NNW 15 19 8 10 1018.1 - 0.0
20/08:00am 12.6 8.8 6.0 64 3.1 NNW 15 20 8 11 1017.9 - 0.0
20/07:30am 12.2 8.8 5.8 65 3.0 N 13 20 7 11 1017.6 - 0.0
20/07:00am 11.9 8.9 5.8 66 2.9 N 11 15 6 8 1017.5 - 0.0
20/06:30am 11.9 8.9 6.2 68 2.7 NW 11 15 6 8 1017.4 - 0.0
20/06:00am 11.8 8.8 6.1 68 2.7 NNW 11 13 6 7 1017.1 1017.0 0.0
20/05:30am 11.9 8.9 6.0 67 2.8 NNW 11 13 6 7 1017.0 - 0.0
20/05:00am 11.9 9.0 6.6 70 2.5 N 11 17 6 9 1016.8 - 0.0
20/04:30am 11.8 9.0 7.1 73 2.3 N 11 13 6 7 1016.6 - 0.0
20/04:00am 12.1 9.7 7.2 72 2.4 NNW 9 13 5 7 1016.7 - 0.0
20/03:30am 11.9 9.9 8.6 80 1.6 N 9 13 5 7 1016.8 - 0.0
20/03:00am 11.7 10.1 8.9 83 1.4 NNW 7 9 4 5 1016.7 1016.6 0.0
20/02:30am 11.9 10.3 8.9 82 1.5 WNW 7 9 4 5 1016.9 - 0.0
20/02:00am 12.0 10.4 8.8 81 1.6 NNW 7 11 4 6 1017.2 - 0.0
20/01:30am 12.2 10.3 8.9 80 1.7 NNW 9 11 5 6 1017.3 - 0.0
20/01:00am 12.0 10.5 9.0 82 1.5 NNW 7 9 4 5 1017.3 - 0.0
20/12:30am 12.3 10.7 8.8 79 1.8 NNW 7 9 4 5 1017.4 - 0.0
20/12:00am 11.9 10.5 8.9 82 1.5 N 6 7 3 4 1017.5 1017.4 0.0
 
Date/Time
EST
Tmp

°C
App
Tmp
°C
Dew
Point
°C
Rel
Hum
%
Delta-T

°C
Wind Press
QNH
hPa
Press
MSL
hPa
Rain
since
9 am
mm
Dir
 
Spd
km/h
Gust
km/h
Spd
kts
Gust
kts
19/11:30pm 12.1 10.5 8.9 81 1.6 NW 7 9 4 5 1017.8 - 0.0
19/11:00pm 12.1 10.5 8.9 81 1.6 NNW 7 11 4 6 1018.2 - 0.0
19/10:30pm 12.0 10.0 8.8 81 1.6 S 9 11 5 6 1018.2 - 0.0
19/10:00pm 12.0 10.4 8.7 80 1.6 S 7 9 4 5 1018.4 - 0.0
19/09:30pm 12.4 10.9 8.3 76 2.0 S 6 7 3 4 1018.5 - 0.0
19/09:00pm 12.6 10.9 8.3 75 2.1 S 7 7 4 4 1018.6 1018.5 0.0
19/08:30pm 13.1 11.6 8.6 74 2.3 S 6 7 3 4 1018.6 - 0.0
19/08:00pm 13.1 11.6 8.4 73 2.3 S 6 6 3 3 1018.7 - 0.0
19/07:30pm 13.6 12.0 8.0 69 2.8 S 6 9 3 5 1018.7 - 0.0
19/07:00pm 13.7 11.8 7.7 67 3.0 S 7 9 4 5 1018.6 - 0.0
19/06:30pm 13.7 11.8 7.7 67 3.0 S 7 9 4 5 1018.5 - 0.0
19/06:00pm 13.8 11.7 8.2 69 2.8 SSE 9 13 5 7 1018.5 1018.4 0.0
19/05:30pm 14.0 11.2 8.6 70 2.7 SE 13 17 7 9 1018.5 - 0.0
19/05:00pm 14.2 11.4 8.6 69 2.8 SSE 13 17 7 9 1018.5 - 0.0
19/04:30pm 14.5 11.3 8.5 67 3.0 S 15 20 8 11 1018.6 - 0.0
19/04:00pm 15.3 12.3 6.1 54 4.5 SW 11 20 6 11 1018.6 - 0.0
19/03:30pm 15.3 12.6 5.8 53 4.6 S 9 17 5 9 1018.6 - 0.0
19/03:00pm 14.7 11.7 7.7 63 3.5 S 13 22 7 12 1018.7 1018.6 0.0
19/02:30pm 14.7 10.9 7.7 63 3.5 S 17 24 9 13 1018.8 - 0.0
19/02:00pm 15.3 11.4 7.3 59 4.0 S 17 22 9 12 1018.9 - 0.0
19/01:30pm 15.3 10.9 7.6 60 3.8 S 20 28 11 15 1019.0 - 0.0
19/01:00pm 15.4 10.7 5.3 51 4.8 SSW 19 24 10 13 1019.3 - 0.0
19/12:30pm 15.4 10.2 5.6 52 4.7 WSW 22 48 12 26 1019.8 - 0.0
19/12:00pm 15.0 10.5 6.3 56 4.2 WSW 19 26 10 14 1020.2 1020.1 0.0
19/11:30am 14.9 9.4 5.7 54 4.4 SW 24 30 13 16 1020.4 - 0.0
19/11:00am 14.8 9.2 5.6 54 4.4 SW 24 33 13 18 1020.6 - 0.0
19/10:30am 15.2 10.3 5.1 51 4.8 SW 20 30 11 16 1020.5 - 0.0
19/10:00am 14.1 10.7 7.6 65 3.2 WSW 15 20 8 11 1020.6 - 0.0
19/09:30am 12.9 9.0 7.1 68 2.8 WSW 17 20 9 11 1020.7 - 0.0
19/09:00am 12.6 9.6 7.9 73 2.3 SW 13 20 7 11 1020.7 1020.6 1.6
19/08:30am 11.6 7.7 7.1 74 2.2 WSW 17 22 9 12 1020.5 - 1.6
19/08:00am 11.1 7.9 7.0 76 2.0 WSW 13 15 7 8 1020.3 - 1.6
19/07:30am 10.5 6.9 6.6 77 1.8 W 15 19 8 10 1019.9 - 1.6
19/07:00am 10.6 6.2 6.6 76 1.9 W 19 24 10 13 1019.6 - 1.6
19/06:30am 10.3 7.0 6.6 78 1.7 WSW 13 19 7 10 1019.7 - 1.6
19/06:00am 10.8 8.3 6.6 75 2.0 WSW 9 15 5 8 1019.2 1019.1 1.6
19/05:30am 10.8 7.9 6.7 76 1.9 WSW 11 17 6 9 1019.1 - 1.6
19/05:00am 11.1 7.6 7.0 76 2.0 WSW 15 19 8 10 1019.0 - 1.6
19/04:30am 11.1 7.2 7.0 76 2.0 WSW 17 22 9 12 1019.0 - 1.6
19/04:00am 11.1 6.6 7.0 76 2.0 W 20 26 11 14 1018.8 - 1.6
19/03:30am 11.2 6.8 7.3 77 1.9 W 20 24 11 13 1019.0 - 1.6
19/03:00am 11.0 6.8 7.5 79 1.7 W 19 24 10 13 1019.1 1019.0 1.6
19/02:30am 10.7 6.3 7.6 81 1.5 W 20 28 11 15 1019.4 - 1.6
19/02:00am 10.5 6.7 7.7 83 1.4 W 17 20 9 11 1019.6 - 1.6
19/01:30am 10.5 6.7 7.4 81 1.5 W 17 22 9 12 1019.8 - 1.6
19/01:00am 10.7 6.9 7.6 81 1.5 W 17 22 9 12 1019.9 - 1.6
19/12:30am 10.4 7.0 7.6 83 1.3 W 15 19 8 10 1019.9 - 1.6
19/12:00am 10.0 6.5 7.3 83 1.3 W 15 20 8 11 1020.0 1019.9 1.6
 
Date/Time
EST
Tmp

°C
App
Tmp
°C
Dew
Point
°C
Rel
Hum
%
Delta-T

°C
Wind Press
QNH
hPa
Press
MSL
hPa
Rain
since
9 am
mm
Dir
 
Spd
km/h
Gust
km/h
Spd
kts
Gust
kts
18/11:30pm 9.8 6.9 6.7 81 1.5 W 11 15 6 8 1019.8 - 1.6
18/11:00pm 10.9 7.5 7.6 80 1.6 WSW 15 20 8 11 1019.9 - 1.6
18/10:30pm 10.4 6.2 7.5 82 1.4 WSW 19 20 10 11 1020.1 - 1.6
18/10:00pm 10.8 6.9 7.1 78 1.8 W 17 22 9 12 1020.2 - 1.6
18/09:30pm 11.1 7.2 7.2 77 1.9 WSW 17 20 9 11 1020.2 - 1.6
18/09:00pm 10.6 7.0 6.9 78 1.8 WSW 15 20 8 11 1019.9 1019.8 1.6
18/08:30pm 11.2 7.3 6.9 75 2.1 WSW 17 20 9 11 1019.8 - 1.6
18/08:00pm 12.0 7.4 6.7 70 2.5 WSW 20 26 11 14 1019.6 - 1.6
18/07:30pm 12.1 7.7 6.6 69 2.6 WSW 19 24 10 13 1019.3 - 1.6
18/07:00pm 13.0 8.0 6.4 64 3.2 WSW 22 32 12 17 1019.1 - 1.6
18/06:30pm 13.5 9.1 6.6 63 3.3 SW 19 26 10 14 1018.8 - 1.6
18/06:00pm 14.2 9.4 5.6 56 4.1 SSW 20 32 11 17 1018.6 1018.5 1.6
18/05:30pm 14.7 10.4 6.8 59 3.9 SSW 19 24 10 13 1018.3 - 1.6
18/05:00pm 15.2 10.4 7.2 59 4.0 SSW 22 28 12 15 1018.0 - 1.6
18/04:30pm 15.5 9.2 7.3 58 4.1 SSW 30 41 16 22 1017.7 - 1.6
18/04:00pm 15.9 10.9 8.2 60 3.9 SSW 24 35 13 19 1017.4 - 1.6
18/03:30pm 16.0 10.8 8.7 62 3.7 S 26 39 14 21 1017.2 - 1.6
18/03:00pm 17.2 11.9 7.0 51 5.1 SSW 24 32 13 17 1017.0 1016.9 1.6
18/02:30pm 16.2 10.5 8.4 60 4.0 SSW 28 37 15 20 1016.9 - 1.6
18/02:00pm 15.7 9.9 9.6 67 3.2 SSW 30 41 16 22 1016.8 - 1.6
18/01:30pm 15.6 12.6 12.7 83 1.6 SSW 20 30 11 16 1016.6 - 1.6

Latest Capital City Observations: Canberra | Sydney | Melbourne | Brisbane | Adelaide | Perth | Hobart | Darwin

Other Formats:

Comma delimited format used in spreadsheet applications
http://www.bom.gov.au/fwo/IDV60901/IDV60901.95866.axf

JavaScript Object Notation format (JSON) in row-major order
http://www.bom.gov.au/fwo/IDV60901/IDV60901.95866.json